Disclaimer

Please do not use the information listed here in-flight or in-navigation, as they are not provided to us by the airports but are provided by volunteers, so they might be outdated.

Search


Regions


Airport information page

Radio informations:
NEUQUEN TWR/APP - 119.3 MHz

Airport informations:
Latitude: 38° 56' 56.40" S
Longitude: 068° 09' 20.56" W
Elevation: 895 feet - 273 meters
Operating hours: Remarks
Operating agency: Civil government, landing fees and diplomatic clearance may be required
Timezone: UTC-3
Fuel: Jet A1, without icing nhibitor.

100/130 MIL Spec, low lead, aviation gasoline (BLUE)

Runway information:
08/26 - 8432 x 147 feet< - >2570 x 45 meters

Recent METARs:
SAZN 210600Z 25003KT CAVOK 20/07 Q1008
SAZN 210600Z 25003KT CAVOK 20/07 Q1008
SAZN 210700Z 25004KT CAVOK 19/07 Q1007

Airport on the map: